Time;durP1;ratioP1;P1;durP2;ratioP2;P2;SDS_P1;SDS_P2;PMS_P1;PMS_P2;Temp;Humidity;BMP_temperature;BMP_pressure;BME280_temperature;BME280_humidity;BME280_pressure;Samples;Min_cycle;Max_cycle;Signal;HPM_P1;HPM_P2
2023/07/17 00:00:44;;;;;;;7.97;1.20;;;17.20;99.90;;;;;;5048723;28;20036;-82
2023/07/17 00:03:10;;;;;;;4.13;0.98;;;17.20;99.90;;;;;;5046817;28;20048;-82
2023/07/17 00:05:35;;;;;;;6.10;1.27;;;17.20;99.90;;;;;;5031939;28;20121;-82
2023/07/17 00:08:02;;;;;;;6.07;1.25;;;17.10;99.90;;;;;;5049035;28;20044;-81
2023/07/17 00:10:27;;;;;;;5.75;1.08;;;17.10;99.90;;;;;;5035378;28;20052;-82
2023/07/17 00:12:53;;;;;;;11.30;1.75;;;17.10;99.90;;;;;;5052090;28;20435;-82
2023/07/17 00:15:19;;;;;;;7.70;1.77;;;17.10;99.90;;;;;;5051447;28;20048;-82
2023/07/17 00:17:44;;;;;;;9.05;1.42;;;17.10;99.90;;;;;;5054321;28;20112;-82
2023/07/17 00:20:11;;;;;;;4.90;1.30;;;17.10;99.90;;;;;;5031581;28;20052;-81
2023/07/17 00:22:38;;;;;;;6.15;1.15;;;17.10;99.90;;;;;;5048091;28;20084;-81
2023/07/17 00:25:07;;;;;;;3.67;1.20;;;17.10;99.90;;;;;;5046618;28;20287;-81
2023/07/17 00:27:36;;;;;;;5.85;1.85;;;17.10;99.90;;;;;;5046620;28;20082;-82
2023/07/17 00:30:03;;;;;;;7.28;1.17;;;17.10;99.90;;;;;;5030796;28;20719;-81
2023/07/17 00:32:29;;;;;;;5.20;1.33;;;17.20;99.90;;;;;;5046074;28;20048;-81
2023/07/17 00:34:55;;;;;;;9.00;1.60;;;17.20;99.90;;;;;;5047772;28;20052;-82
2023/07/17 00:37:23;;;;;;;8.63;1.77;;;17.20;99.90;;;;;;5029407;28;20126;-81
2023/07/17 00:39:49;;;;;;;8.73;1.30;;;17.00;99.90;;;;;;5014356;28;20037;-81
2023/07/17 00:42:15;;;;;;;5.18;1.08;;;17.20;99.90;;;;;;5045915;28;20098;-82
2023/07/17 00:44:41;;;;;;;9.90;1.55;;;17.20;99.90;;;;;;5030020;28;20045;-81
2023/07/17 00:47:08;;;;;;;7.53;1.58;;;17.20;99.90;;;;;;5046701;28;20064;-82
2023/07/17 00:49:34;;;;;;;7.00;1.58;;;17.10;99.90;;;;;;5029435;28;20572;-82
2023/07/17 00:52:00;;;;;;;4.53;1.48;;;17.10;99.90;;;;;;5047480;28;20087;-82
2023/07/17 00:54:31;;;;;;;8.32;1.45;;;17.00;99.90;;;;;;5032303;28;20080;-82
2023/07/17 00:56:59;;;;;;;7.88;1.23;;;17.00;99.90;;;;;;5047246;28;20056;-82
2023/07/17 00:59:26;;;;;;;5.32;1.35;;;16.90;99.90;;;;;;5046662;28;20505;-81
2023/07/17 01:01:53;;;;;;;6.95;1.90;;;16.20;99.90;;;;;;5049480;28;20048;-81
2023/07/17 01:04:18;;;;;;;7.78;1.65;;;18.90;99.90;;;;;;5048424;28;20044;-81
2023/07/17 01:06:47;;;;;;;10.02;1.70;;;16.80;99.90;;;;;;5046069;28;20318;-82
2023/07/17 01:09:16;;;;;;;8.18;2.15;;;16.80;99.90;;;;;;5047184;28;20055;-82
2023/07/17 01:11:42;;;;;;;6.63;1.17;;;16.70;99.90;;;;;;5046669;28;20048;-81
2023/07/17 01:14:17;;;;;;;3.97;1.20;;;16.60;99.90;;;;;;5030416;28;20460;-81
2023/07/17 01:16:47;;;;;;;6.40;0.88;;;16.50;99.90;;;;;;5045740;28;20060;-81
2023/07/17 01:19:13;;;;;;;3.30;1.63;;;16.50;99.90;;;;;;5046224;28;20127;-81
2023/07/17 01:21:50;;;;;;;3.88;1.02;;;16.40;99.90;;;;;;5047236;28;20044;-81
2023/07/17 01:24:16;;;;;;;3.10;1.20;;;16.40;99.90;;;;;;5029990;28;20052;-81
2023/07/17 01:26:42;;;;;;;3.72;0.93;;;16.30;99.90;;;;;;5047867;28;20048;-81
2023/07/17 01:29:07;;;;;;;3.45;1.15;;;16.20;99.90;;;;;;5030630;28;20105;-81
2023/07/17 01:31:33;;;;;;;4.07;1.10;;;16.10;99.90;;;;;;5034263;28;20060;-81
2023/07/17 01:33:59;;;;;;;4.03;1.00;;;16.10;99.90;;;;;;5034861;28;20546;-81
2023/07/17 01:36:26;;;;;;;3.40;1.20;;;16.10;99.90;;;;;;5033329;28;20483;-81
2023/07/17 01:38:54;;;;;;;5.38;1.45;;;16.00;99.90;;;;;;5034650;28;20060;-81
2023/07/17 01:41:21;;;;;;;4.95;1.02;;;16.00;99.90;;;;;;5050360;28;20044;-82
2023/07/17 01:43:47;;;;;;;3.53;1.42;;;16.00;99.90;;;;;;5018491;28;20055;-81
2023/07/17 01:46:12;;;;;;;3.50;1.05;;;15.20;99.90;;;;;;5049824;28;20048;-81
2023/07/17 01:48:38;;;;;;;2.35;0.85;;;16.00;99.90;;;;;;5033373;28;20059;-81
2023/07/17 01:51:04;;;;;;;4.00;1.23;;;15.90;99.90;;;;;;5050039;28;20807;-81
2023/07/17 01:53:29;;;;;;;3.67;1.50;;;15.90;99.90;;;;;;5033523;28;20127;-81
2023/07/17 01:55:55;;;;;;;5.45;1.13;;;15.90;99.90;;;;;;5050824;28;20040;-81
2023/07/17 01:58:21;;;;;;;5.53;1.17;;;15.90;99.90;;;;;;5037668;28;20044;-81
2023/07/17 02:00:47;;;;;;;4.78;1.40;;;15.90;99.90;;;;;;5041071;28;20051;-80
2023/07/17 02:03:13;;;;;;;4.88;1.80;;;15.90;99.90;;;;;;5054545;28;20131;-82
2023/07/17 02:05:38;;;;;;;4.95;1.40;;;15.90;99.90;;;;;;5056378;28;20111;-81
2023/07/17 02:08:06;;;;;;;6.32;1.38;;;17.20;99.90;;;;;;5054413;28;20041;-81
2023/07/17 02:10:32;;;;;;;3.55;0.93;;;15.90;99.90;;;;;;5054305;28;20052;-80
2023/07/17 02:12:57;;;;;;;5.78;1.23;;;15.90;99.90;;;;;;5055096;28;20041;-81
2023/07/17 02:15:23;;;;;;;2.47;1.10;;;15.80;99.90;;;;;;5052269;28;20032;-81
2023/07/17 02:17:49;;;;;;;4.82;1.20;;;17.20;99.90;;;;;;5050730;28;20447;-81
2023/07/17 02:20:15;;;;;;;2.65;1.00;;;15.80;99.90;;;;;;5033809;28;20102;-81
2023/07/17 02:22:41;;;;;;;3.53;1.10;;;15.90;99.90;;;;;;5034410;28;20457;-82
2023/07/17 02:25:07;;;;;;;5.75;1.67;;;15.80;99.90;;;;;;5050443;28;20059;-80
2023/07/17 02:27:33;;;;;;;4.45;1.23;;;15.80;99.90;;;;;;5035085;28;20102;-81
2023/07/17 02:29:59;;;;;;;6.78;2.63;;;15.70;99.90;;;;;;5033494;28;20384;-81
2023/07/17 02:32:29;;;;;;;3.53;1.20;;;15.70;99.90;;;;;;5050020;28;20084;-81
2023/07/17 02:34:55;;;;;;;3.33;1.42;;;15.70;99.90;;;;;;5068347;28;20047;-81
2023/07/17 02:37:21;;;;;;;3.55;1.83;;;15.70;99.90;;;;;;5066852;28;20045;-81
2023/07/17 02:39:46;;;;;;;6.35;1.80;;;15.70;99.90;;;;;;5033793;28;20102;-81
2023/07/17 02:42:12;;;;;;;6.75;1.50;;;15.60;99.90;;;;;;5047770;28;20040;-81
2023/07/17 02:44:38;;;;;;;2.80;1.30;;;15.60;99.90;;;;;;5067141;28;20091;-81
2023/07/17 02:47:04;;;;;;;6.80;1.52;;;15.60;99.90;;;;;;5065857;28;20056;-81
2023/07/17 02:49:29;;;;;;;3.08;0.90;;;15.60;99.90;;;;;;5048945;28;20119;-81
2023/07/17 02:51:55;;;;;;;5.05;1.52;;;15.50;99.90;;;;;;5067116;28;20467;-81
2023/07/17 02:54:23;;;;;;;6.88;1.48;;;15.50;99.90;;;;;;5031523;28;20052;-81
2023/07/17 02:56:49;;;;;;;8.35;1.30;;;15.50;99.90;;;;;;5066941;28;20058;-81
2023/07/17 02:59:14;;;;;;;8.60;1.90;;;15.50;99.90;;;;;;5047482;28;20053;-81
2023/07/17 03:01:40;;;;;;;6.05;1.55;;;15.50;99.90;;;;;;5032265;28;20122;-81
2023/07/17 03:04:06;;;;;;;10.68;1.80;;;15.50;99.90;;;;;;5031202;28;20404;-81
2023/07/17 03:06:32;;;;;;;5.45;1.80;;;15.50;99.90;;;;;;5066827;28;20127;-81
2023/07/17 03:08:57;;;;;;;5.25;1.58;;;15.50;99.90;;;;;;5066543;28;20043;-81
2023/07/17 03:11:23;;;;;;;8.07;1.77;;;15.40;99.90;;;;;;5014651;28;20045;-82
2023/07/17 03:13:49;;;;;;;8.63;2.20;;;15.50;99.90;;;;;;5032500;28;20120;-81
2023/07/17 03:16:14;;;;;;;8.00;1.92;;;15.40;99.90;;;;;;5014650;28;20090;-81
2023/07/17 03:18:40;;;;;;;6.63;2.00;;;15.40;99.90;;;;;;5032508;28;20372;-81
2023/07/17 03:21:06;;;;;;;9.13;1.83;;;15.40;99.90;;;;;;5070582;28;20044;-81
2023/07/17 03:23:31;;;;;;;9.65;1.80;;;15.40;99.90;;;;;;5071661;28;20045;-81
2023/07/17 03:25:57;;;;;;;5.05;1.88;;;15.40;99.90;;;;;;5054057;28;20044;-81
2023/07/17 03:28:23;;;;;;;4.70;1.83;;;15.40;99.90;;;;;;5071663;28;20048;-80
2023/07/17 03:30:49;;;;;;;5.18;1.58;;;15.40;99.90;;;;;;5053686;28;20091;-81
2023/07/17 03:33:15;;;;;;;3.33;1.50;;;15.40;99.90;;;;;;5018514;28;20076;-81
2023/07/17 03:35:40;;;;;;;3.50;1.77;;;15.40;99.90;;;;;;5035846;28;20612;-82
2023/07/17 03:38:06;;;;;;;6.90;1.70;;;15.40;99.90;;;;;;5016564;28;20045;-81
2023/07/17 03:40:32;;;;;;;7.20;1.52;;;15.40;99.90;;;;;;5036238;28;20051;-81
2023/07/17 03:42:58;;;;;;;5.68;1.75;;;15.30;99.90;;;;;;5035427;28;20098;-81
2023/07/17 03:45:24;;;;;;;7.38;1.67;;;15.40;99.90;;;;;;5033745;28;20044;-83
2023/07/17 03:47:51;;;;;;;5.90;1.35;;;15.30;99.90;;;;;;5050579;28;20053;-81
2023/07/17 03:50:16;;;;;;;8.25;1.80;;;15.30;99.90;;;;;;5030237;28;20557;-81
2023/07/17 03:52:43;;;;;;;8.82;1.55;;;15.30;99.90;;;;;;5031437;28;20048;-82
2023/07/17 03:55:08;;;;;;;7.60;1.58;;;15.30;99.90;;;;;;5045424;28;20041;-81
2023/07/17 03:57:34;;;;;;;5.90;1.48;;;13.70;99.90;;;;;;5065382;28;20048;-82
2023/07/17 04:00:00;;;;;;;4.32;1.20;;;15.30;99.90;;;;;;5046497;28;20091;-82
2023/07/17 04:02:26;;;;;;;7.68;2.03;;;15.30;99.90;;;;;;5030389;28;20041;-81
2023/07/17 04:04:52;;;;;;;5.47;1.77;;;15.30;99.90;;;;;;5065803;28;20123;-81
2023/07/17 04:07:18;;;;;;;4.90;1.55;;;13.60;99.90;;;;;;5046458;28;20049;-81
2023/07/17 04:09:44;;;;;;;6.22;1.70;;;15.30;99.90;;;;;;5065934;28;20083;-81
2023/07/17 04:12:11;;;;;;;5.38;1.45;;;15.30;99.90;;;;;;5064185;28;20072;-81
2023/07/17 04:14:37;;;;;;;8.93;1.90;;;15.20;99.90;;;;;;5065497;28;20045;-81
2023/07/17 04:17:03;;;;;;;9.38;1.58;;;17.70;99.90;;;;;;5046243;28;20116;-81
2023/07/17 04:19:30;;;;;;;3.42;1.75;;;15.20;99.90;;;;;;5065028;28;20141;-81
2023/07/17 04:21:56;;;;;;;4.63;1.50;;;15.20;99.90;;;;;;5046997;28;20079;-81
2023/07/17 04:24:23;;;;;;;5.60;1.40;;;15.20;99.90;;;;;;5046689;28;20053;-88
2023/07/17 04:26:50;;;;;;;9.55;1.80;;;13.00;99.90;;;;;;5047823;28;20450;-82
2023/07/17 04:29:16;;;;;;;4.20;1.38;;;15.90;99.90;;;;;;5045829;28;20048;-81
2023/07/17 04:31:42;;;;;;;6.97;1.65;;;15.30;99.90;;;;;;5064686;28;20063;-82
2023/07/17 04:34:08;;;;;;;4.35;1.40;;;15.30;99.90;;;;;;5045353;28;20045;-83
2023/07/17 04:36:34;;;;;;;8.45;1.48;;;15.30;99.90;;;;;;5046489;28;20062;-82
2023/07/17 04:39:00;;;;;;;11.10;2.92;;;15.30;99.90;;;;;;5064705;28;20112;-82
2023/07/17 04:41:25;;;;;;;8.60;1.88;;;15.30;99.90;;;;;;5029512;28;20040;-83
2023/07/17 04:43:51;;;;;;;6.25;1.42;;;15.40;99.90;;;;;;5030543;28;20110;-84
2023/07/17 04:46:17;;;;;;;7.22;1.63;;;15.40;99.90;;;;;;5013204;28;20040;-82
2023/07/17 04:48:43;;;;;;;9.13;1.75;;;15.50;99.90;;;;;;5065081;28;20079;-82
2023/07/17 04:51:09;;;;;;;10.75;2.00;;;15.50;99.90;;;;;;5028761;28;20462;-82
2023/07/17 04:53:34;;;;;;;4.20;1.20;;;15.50;99.90;;;;;;5046550;28;20087;-81
2023/07/17 04:56:00;;;;;;;8.70;1.83;;;15.60;99.90;;;;;;5064018;28;20098;-81
2023/07/17 04:58:27;;;;;;;5.35;1.75;;;15.60;99.90;;;;;;5046207;28;20613;-81
2023/07/17 05:00:59;;;;;;;5.90;1.42;;;15.60;99.90;;;;;;5047055;28;20048;-82
2023/07/17 05:03:24;;;;;;;8.20;1.90;;;15.70;99.90;;;;;;5045163;28;20045;-81
2023/07/17 05:05:53;;;;;;;8.48;1.63;;;15.70;99.90;;;;;;5046498;28;20161;-83
2023/07/17 05:08:20;;;;;;;6.57;1.08;;;17.00;99.90;;;;;;5044869;28;20088;-83
2023/07/17 05:10:59;;;;;;;7.18;1.63;;;15.80;99.90;;;;;;5046913;28;20063;-84
2023/07/17 05:13:26;;;;;;;8.43;1.60;;;15.90;99.90;;;;;;5046167;28;20060;-81
2023/07/17 05:16:03;;;;;;;10.35;1.83;;;15.90;99.90;;;;;;5012434;28;20052;-83
2023/07/17 05:18:29;;;;;;;5.28;1.27;;;16.00;99.90;;;;;;5030759;28;20399;-85
2023/07/17 05:20:55;;;;;;;8.68;2.10;;;15.70;99.90;;;;;;5028705;28;20040;-82
2023/07/17 05:23:21;;;;;;;6.20;1.23;;;16.10;99.90;;;;;;5047041;28;20088;-82
2023/07/17 05:25:59;;;;;;;7.90;1.73;;;16.10;99.90;;;;;;5063286;28;20056;-83
2023/07/17 05:28:27;;;;;;;5.30;1.48;;;16.20;99.90;;;;;;5029842;28;20075;-79
2023/07/17 05:30:54;;;;;;;7.25;1.95;;;16.20;99.90;;;;;;5029998;28;20044;-81
2023/07/17 05:33:24;;;;;;;9.98;2.25;;;16.30;99.90;;;;;;5044732;28;20123;-82
2023/07/17 05:35:50;;;;;;;7.07;1.92;;;16.30;99.90;;;;;;5046302;28;20048;-83
2023/07/17 05:38:16;;;;;;;8.30;1.85;;;16.40;99.90;;;;;;5045326;28;20044;-83
2023/07/17 05:40:42;;;;;;;5.72;1.80;;;16.50;99.90;;;;;;5029851;28;20460;-83
2023/07/17 05:43:08;;;;;;;3.40;1.55;;;16.50;99.90;;;;;;5045175;28;20471;-83
2023/07/17 05:45:35;;;;;;;10.65;1.88;;;16.60;99.90;;;;;;5046227;28;20109;-83
2023/07/17 05:48:01;;;;;;;6.38;1.90;;;16.60;99.90;;;;;;5029355;28;20121;-83
2023/07/17 05:50:26;;;;;;;10.40;2.10;;;16.70;99.90;;;;;;5045270;28;20527;-83
2023/07/17 05:52:52;;;;;;;7.75;1.63;;;16.70;99.90;;;;;;5030103;28;20402;-83
2023/07/17 05:55:18;;;;;;;5.20;1.33;;;16.80;99.90;;;;;;5011596;28;20110;-83
2023/07/17 05:57:43;;;;;;;10.43;1.83;;;16.80;99.90;;;;;;5030025;28;20189;-84
2023/07/17 06:00:14;;;;;;;8.93;2.10;;;16.80;99.90;;;;;;5044546;28;20425;-83
2023/07/17 06:02:41;;;;;;;8.13;2.20;;;16.90;99.90;;;;;;5029687;28;20040;-83
2023/07/17 06:05:08;;;;;;;6.68;1.70;;;17.00;99.90;;;;;;5045559;28;20534;-84
2023/07/17 06:07:33;;;;;;;5.75;1.73;;;17.00;99.90;;;;;;5028941;28;20403;-83
2023/07/17 06:09:59;;;;;;;8.50;1.83;;;17.10;99.90;;;;;;5046696;28;20074;-83
2023/07/17 06:12:25;;;;;;;9.73;2.60;;;17.30;99.90;;;;;;5044298;28;20399;-83
2023/07/17 06:14:51;;;;;;;8.43;2.17;;;17.30;99.90;;;;;;5046261;28;20052;-85
2023/07/17 06:17:17;;;;;;;7.32;2.63;;;17.40;99.90;;;;;;5028047;28;20055;-84
2023/07/17 06:19:43;;;;;;;10.02;2.95;;;17.50;99.90;;;;;;5067373;28;20092;-84
2023/07/17 06:22:08;;;;;;;7.85;2.67;;;17.70;99.90;;;;;;5016039;28;20055;-83
2023/07/17 06:24:34;;;;;;;5.57;1.98;;;17.80;99.90;;;;;;5032576;28;20127;-84
2023/07/17 06:27:03;;;;;;;5.43;1.90;;;18.00;99.90;;;;;;5050123;28;20062;-86
2023/07/17 06:29:29;;;;;;;6.75;2.10;;;18.10;99.90;;;;;;5031886;28;20093;-86
2023/07/17 06:31:54;;;;;;;9.15;2.30;;;18.10;99.90;;;;;;5049546;28;20036;-86
2023/07/17 06:34:20;;;;;;;8.77;2.40;;;18.20;99.90;;;;;;5031550;28;20049;-83
2023/07/17 06:36:48;;;;;;;9.93;2.78;;;18.30;99.90;;;;;;5048871;28;20052;-84
2023/07/17 06:39:13;;;;;;;6.65;2.55;;;18.20;99.90;;;;;;5048941;28;20037;-85
2023/07/17 06:41:39;;;;;;;7.80;3.15;;;18.30;99.90;;;;;;5015665;28;20543;-85
2023/07/17 06:44:05;;;;;;;5.88;2.50;;;18.40;99.90;;;;;;5032250;28;20045;-87
2023/07/17 06:46:30;;;;;;;5.80;2.60;;;18.40;99.90;;;;;;5014895;28;20047;-85
2023/07/17 06:48:56;;;;;;;13.93;3.13;;;18.50;99.90;;;;;;5032757;28;20052;-83
2023/07/17 06:51:22;;;;;;;8.73;3.15;;;18.60;99.90;;;;;;5014657;28;20236;-81
2023/07/17 06:53:48;;;;;;;6.43;2.50;;;18.70;99.90;;;;;;5049148;28;20119;-83
2023/07/17 06:56:14;;;;;;;9.50;3.83;;;18.80;99.90;;;;;;5047814;28;20123;-82
2023/07/17 06:58:40;;;;;;;10.18;2.58;;;18.80;99.90;;;;;;5048516;28;20202;-83
2023/07/17 07:01:05;;;;;;;13.05;3.90;;;18.70;99.90;;;;;;5049383;28;20044;-84
2023/07/17 07:03:31;;;;;;;12.88;3.58;;;18.80;99.90;;;;;;5048050;28;20082;-84
2023/07/17 07:06:01;;;;;;;6.57;2.85;;;18.70;99.90;;;;;;5067714;28;20040;-84
2023/07/17 07:08:29;;;;;;;10.50;2.85;;;18.80;99.90;;;;;;5047776;28;20036;-84
2023/07/17 07:10:56;;;;;;;11.68;2.90;;;18.80;99.90;;;;;;5048558;28;20059;-86
2023/07/17 07:13:23;;;;;;;8.60;3.15;;;18.80;99.90;;;;;;5014320;28;20052;-84
2023/07/17 07:15:53;;;;;;;7.68;3.88;;;17.70;99.90;;;;;;5048558;28;20676;-84
2023/07/17 07:18:19;;;;;;;7.47;2.92;;;18.80;99.90;;;;;;5066743;28;20089;-84
2023/07/17 07:20:47;;;;;;;8.05;3.08;;;18.70;99.90;;;;;;5031202;28;20071;-84
2023/07/17 07:23:13;;;;;;;6.40;2.30;;;18.60;99.90;;;;;;5048636;28;20040;-84
2023/07/17 07:25:39;;;;;;;6.05;2.40;;;18.60;99.90;;;;;;5047394;28;20076;-88
2023/07/17 07:28:05;;;;;;;5.88;2.13;;;18.50;99.90;;;;;;5031613;28;20475;-84
2023/07/17 07:30:31;;;;;;;14.05;3.00;;;18.60;99.90;;;;;;5046819;28;20045;-84
2023/07/17 07:32:57;;;;;;;6.00;2.72;;;18.60;99.90;;;;;;5031858;28;20059;-83
2023/07/17 07:35:23;;;;;;;5.95;2.20;;;18.50;99.90;;;;;;5066308;28;20041;-83
2023/07/17 07:37:48;;;;;;;7.20;2.03;;;18.40;99.90;;;;;;5048264;28;20503;-85
2023/07/17 07:40:15;;;;;;;5.00;1.92;;;18.30;99.90;;;;;;5016246;28;20365;-84
2023/07/17 07:42:42;;;;;;;5.90;2.03;;;17.70;99.90;;;;;;5047826;28;20123;-83
2023/07/17 07:45:09;;;;;;;6.40;1.92;;;18.00;99.90;;;;;;5053955;28;20124;-84
2023/07/17 07:47:35;;;;;;;6.88;2.67;;;17.90;99.90;;;;;;5052156;28;20075;-83
2023/07/17 07:50:01;;;;;;;8.90;2.30;;;17.80;99.90;;;;;;5053567;28;20044;-84
2023/07/17 07:52:27;;;;;;;5.47;2.38;;;17.10;99.90;;;;;;5033219;28;20499;-87
2023/07/17 07:54:53;;;;;;;6.97;2.33;;;17.90;99.90;;;;;;5031445;28;20045;-83
2023/07/17 07:57:19;;;;;;;6.50;1.88;;;18.00;99.90;;;;;;5048367;28;20040;-85
2023/07/17 07:59:45;;;;;;;6.63;2.05;;;18.10;99.90;;;;;;5013912;28;20131;-83
2023/07/17 08:02:11;;;;;;;8.90;2.53;;;19.50;99.90;;;;;;5065964;28;20120;-85
2023/07/17 08:04:37;;;;;;;4.95;2.13;;;18.30;99.90;;;;;;5046348;28;20053;-85
2023/07/17 08:07:04;;;;;;;7.30;2.25;;;18.50;99.90;;;;;;5048045;28;20047;-86
2023/07/17 08:09:29;;;;;;;8.10;2.75;;;18.80;99.90;;;;;;5030266;28;20484;-86
2023/07/17 08:11:55;;;;;;;7.30;2.58;;;19.00;99.90;;;;;;5047020;28;20048;-87
2023/07/17 08:14:21;;;;;;;8.40;2.17;;;19.20;99.90;;;;;;5047270;28;20080;-87
2023/07/17 08:16:48;;;;;;;7.50;2.75;;;19.20;99.90;;;;;;5013488;28;20044;-85
2023/07/17 08:19:13;;;;;;;7.13;2.35;;;19.30;99.90;;;;;;5031702;28;20430;-86
2023/07/17 08:21:39;;;;;;;7.50;2.53;;;19.40;99.90;;;;;;5029463;28;20106;-87
2023/07/17 08:24:05;;;;;;;7.30;2.28;;;19.50;99.90;;;;;;5047348;28;20135;-87
2023/07/17 08:26:31;;;;;;;11.60;2.92;;;19.60;99.90;;;;;;5013413;28;20475;-86
2023/07/17 08:28:59;;;;;;;4.32;1.90;;;19.60;99.90;;;;;;5030419;28;20045;-85
2023/07/17 08:31:24;;;;;;;6.90;2.33;;;19.90;99.90;;;;;;5046876;28;20097;-86
2023/07/17 08:33:50;;;;;;;7.70;2.25;;;19.90;99.90;;;;;;5046144;28;20048;-87
2023/07/17 08:36:16;;;;;;;8.05;2.83;;;20.00;99.90;;;;;;5031266;28;20044;-87
2023/07/17 08:38:41;;;;;;;3.45;2.00;;;20.10;99.90;;;;;;5029576;28;20040;-87
2023/07/17 08:41:08;;;;;;;6.60;1.85;;;20.10;99.90;;;;;;5013619;28;20050;-87
2023/07/17 08:43:36;;;;;;;4.28;1.92;;;20.10;99.90;;;;;;5046109;28;20142;-90
2023/07/17 08:46:02;;;;;;;6.93;2.10;;;20.00;99.90;;;;;;5030444;28;20044;-86
2023/07/17 08:48:29;;;;;;;4.28;2.20;;;20.00;99.90;;;;;;5046337;28;20518;-88
2023/07/17 08:50:57;;;;;;;4.68;1.70;;;20.00;99.90;;;;;;5030642;28;20498;-86
2023/07/17 08:53:28;;;;;;;4.00;1.90;;;19.90;99.90;;;;;;5030806;28;20044;-85
2023/07/17 08:55:55;;;;;;;5.70;1.63;;;19.80;99.90;;;;;;5045850;28;20426;-86
2023/07/17 08:58:23;;;;;;;8.50;2.15;;;19.80;99.90;;;;;;5047449;28;20238;-85
2023/07/17 09:00:52;;;;;;;4.35;1.80;;;19.80;99.90;;;;;;5029108;28;20056;-84
2023/07/17 09:03:18;;;;;;;4.55;1.38;;;19.90;99.90;;;;;;5030296;28;20491;-84
2023/07/17 09:05:44;;;;;;;3.08;1.33;;;20.00;99.90;;;;;;5030553;28;20102;-84
2023/07/17 09:08:12;;;;;;;5.25;1.48;;;20.20;99.90;;;;;;5046494;28;20056;-84
2023/07/17 09:10:39;;;;;;;4.40;1.63;;;20.30;99.90;;;;;;5047303;28;20049;-85
2023/07/17 09:13:05;;;;;;;6.28;1.67;;;20.40;99.90;;;;;;5028767;28;20045;-88
2023/07/17 09:15:32;;;;;;;2.28;1.13;;;18.10;99.90;;;;;;5046987;28;20045;-86
2023/07/17 09:17:58;;;;;;;7.28;1.55;;;22.10;99.90;;;;;;5029506;28;20129;-84
2023/07/17 09:20:24;;;;;;;3.67;1.75;;;20.30;99.90;;;;;;5030058;28;20044;-84
2023/07/17 09:23:00;;;;;;;5.05;2.85;;;20.40;99.90;;;;;;5046160;28;20132;-87
2023/07/17 09:25:30;;;;;;;7.78;2.58;;;20.60;99.90;;;;;;5026543;28;20636;-86
2023/07/17 09:27:56;;;;;;;6.88;1.60;;;20.80;99.90;;;;;;5030011;28;20045;-87
2023/07/17 09:30:24;;;;;;;6.38;1.73;;;21.00;99.90;;;;;;5045686;28;20063;-88
2023/07/17 09:32:53;;;;;;;3.33;1.05;;;21.00;99.90;;;;;;5046642;28;20044;-86
2023/07/17 09:35:20;;;;;;;3.88;1.08;;;21.20;99.90;;;;;;5029291;28;20047;-87
2023/07/17 09:37:46;;;;;;;4.72;1.48;;;21.30;99.90;;;;;;5029295;28;20542;-87
2023/07/17 09:40:17;;;;;;;6.15;1.17;;;21.40;99.30;;;;;;5029796;28;20049;-85
2023/07/17 09:42:44;;;;;;;2.78;1.05;;;21.50;98.10;;;;;;5045570;28;20504;-88
2023/07/17 09:45:11;;;;;;;5.10;1.15;;;21.60;98.00;;;;;;5046759;28;20131;-89
2023/07/17 09:47:39;;;;;;;5.40;1.50;;;21.70;97.90;;;;;;5012402;28;20052;-88
2023/07/17 09:50:07;;;;;;;4.35;1.23;;;21.80;97.80;;;;;;5046186;28;20051;-89
2023/07/17 09:52:34;;;;;;;2.95;1.20;;;21.80;97.60;;;;;;5029922;28;20084;-88
2023/07/17 09:55:00;;;;;;;8.40;1.33;;;21.80;97.40;;;;;;5050722;28;20032;-86
2023/07/17 09:57:28;;;;;;;5.75;1.42;;;21.80;97.20;;;;;;5050048;28;20045;-88
2023/07/17 10:00:03;;;;;;;5.07;1.08;;;22.00;97.10;;;;;;5050079;28;20080;-86
2023/07/17 10:02:34;;;;;;;4.35;1.20;;;22.10;96.40;;;;;;5050132;28;20423;-87
2023/07/17 10:05:03;;;;;;;2.95;1.00;;;22.20;95.60;;;;;;5032532;28;20052;-86
2023/07/17 10:07:29;;;;;;;3.15;1.20;;;22.20;96.10;;;;;;5050095;28;20040;-86
2023/07/17 10:09:58;;;;;;;4.20;1.50;;;22.30;96.00;;;;;;5049253;28;20048;-87
2023/07/17 10:12:24;;;;;;;3.65;1.17;;;22.40;95.60;;;;;;5016669;28;20050;-85
2023/07/17 10:14:57;;;;;;;2.97;1.20;;;22.40;95.50;;;;;;5000681;28;20044;-87
2023/07/17 10:17:30;;;;;;;5.72;1.00;;;22.50;95.60;;;;;;5034141;28;20462;-87
2023/07/17 10:19:58;;;;;;;4.70;0.93;;;22.60;95.20;;;;;;5050743;28;20052;-88
2023/07/17 10:22:32;;;;;;;4.63;1.45;;;22.70;95.00;;;;;;5049163;28;20510;-87
2023/07/17 10:24:58;;;;;;;4.55;1.00;;;22.90;94.40;;;;;;5050077;28;20047;-89
2023/07/17 10:27:41;;;;;;;1.55;0.68;;;23.00;94.30;;;;;;5032502;28;20036;-85
2023/07/17 10:30:27;;;;;;;4.32;1.08;;;23.10;92.80;;;;;;5049338;28;20051;-88
2023/07/17 10:33:13;;;;;;;6.97;1.13;;;23.30;93.80;;;;;;5033041;28;20051;-88
2023/07/17 10:35:44;;;;;;;3.75;1.35;;;23.50;93.10;;;;;;5049044;28;20056;-86
2023/07/17 10:38:12;;;;;;;8.30;1.10;;;23.40;93.30;;;;;;5049316;28;20127;-88
2023/07/17 10:40:37;;;;;;;4.90;1.60;;;23.30;93.30;;;;;;5016739;28;20075;-88
2023/07/17 10:43:19;;;;;;;1.70;0.80;;;23.30;93.20;;;;;;5016046;28;20037;-89
2023/07/17 10:45:47;;;;;;;6.30;1.20;;;23.20;92.80;;;;;;5034547;28;20059;-86
2023/07/17 10:48:14;;;;;;;3.13;1.20;;;23.20;93.10;;;;;;5031942;28;20064;-88
2023/07/17 10:50:52;;;;;;;5.70;1.50;;;23.10;92.80;;;;;;5033144;28;20055;-86
2023/07/17 10:53:19;;;;;;;3.53;1.10;;;23.00;92.20;;;;;;5048587;28;20055;-86
2023/07/17 10:55:46;;;;;;;5.72;1.17;;;23.10;92.70;;;;;;5048819;28;20083;-86
2023/07/17 10:58:12;;;;;;;4.55;1.13;;;23.20;92.80;;;;;;5049297;28;20127;-85
2023/07/17 11:00:42;;;;;;;2.35;0.93;;;23.30;92.60;;;;;;5031657;28;20074;-87
2023/07/17 11:03:09;;;;;;;3.15;1.25;;;23.50;93.00;;;;;;5015380;28;20514;-86
2023/07/17 11:05:39;;;;;;;4.07;1.10;;;23.50;92.50;;;;;;5014894;28;20036;-87
2023/07/17 11:08:07;;;;;;;2.95;0.77;;;23.70;91.90;;;;;;5048209;28;20062;-87
2023/07/17 11:10:34;;;;;;;4.60;1.17;;;23.70;91.80;;;;;;5030843;28;20044;-87
2023/07/17 11:13:04;;;;;;;2.28;0.90;;;23.60;91.60;;;;;;5032091;28;20071;-85
2023/07/17 11:15:32;;;;;;;3.50;1.27;;;23.60;91.10;;;;;;5047540;28;20484;-84
2023/07/17 11:18:07;;;;;;;4.30;1.35;;;23.60;90.60;;;;;;5031306;28;20045;-85
2023/07/17 11:20:33;;;;;;;4.97;1.35;;;22.90;90.30;;;;;;5048658;28;20577;-86
2023/07/17 11:22:59;;;;;;;3.10;0.75;;;23.70;90.50;;;;;;5030625;28;20048;-85
2023/07/17 11:25:27;;;;;;;2.22;0.93;;;23.90;90.20;;;;;;5032000;28;20566;-85
2023/07/17 11:27:54;;;;;;;4.90;1.15;;;23.90;90.00;;;;;;5014038;28;20116;-86
2023/07/17 11:30:23;;;;;;;2.45;1.10;;;23.70;90.00;;;;;;5031396;28;20044;-85
2023/07/17 11:32:58;;;;;;;5.22;1.00;;;23.40;90.10;;;;;;5048410;28;20123;-86
2023/07/17 11:35:36;;;;;;;2.03;1.20;;;23.20;88.70;;;;;;5047816;28;20041;-85
2023/07/17 11:38:06;;;;;;;4.47;1.25;;;23.00;90.00;;;;;;5017065;28;20427;-85
2023/07/17 11:40:32;;;;;;;2.58;1.40;;;22.90;90.20;;;;;;5046801;28;20148;-86
2023/07/17 11:43:04;;;;;;;5.63;1.85;;;22.90;90.10;;;;;;5047859;28;20048;-83
2023/07/17 11:45:30;;;;;;;2.83;1.10;;;22.80;90.50;;;;;;5031164;28;20048;-83
2023/07/17 11:47:57;;;;;;;3.00;1.05;;;23.00;90.50;;;;;;5047555;28;20136;-83
2023/07/17 11:50:25;;;;;;;2.55;1.13;;;23.30;90.40;;;;;;5047675;28;20055;-82
2023/07/17 11:53:04;;;;;;;4.40;2.40;;;23.40;90.10;;;;;;5047195;28;20063;-81
2023/07/17 11:55:38;;;;;;;9.02;1.17;;;23.50;89.00;;;;;;5047546;28;20044;-82
2023/07/17 11:58:14;;;;;;;2.50;1.15;;;23.60;88.90;;;;;;5030563;28;20048;-84
2023/07/17 12:00:42;;;;;;;5.53;1.10;;;23.70;87.90;;;;;;5034112;28;20052;-83
2023/07/17 12:03:08;;;;;;;3.20;1.08;;;23.60;88.60;;;;;;5051184;28;20106;-86
2023/07/17 12:05:37;;;;;;;4.47;1.08;;;23.50;88.80;;;;;;5016440;28;20044;-83
2023/07/17 12:08:03;;;;;;;1.75;0.93;;;25.30;89.60;;;;;;5031825;28;20054;-83
2023/07/17 12:10:29;;;;;;;3.60;0.90;;;23.20;89.00;;;;;;5047971;28;20099;-83
2023/07/17 12:12:56;;;;;;;1.48;0.80;;;23.30;88.80;;;;;;5047902;28;20040;-82
2023/07/17 12:15:22;;;;;;;3.38;0.90;;;23.30;89.00;;;;;;5029155;28;20270;-83
2023/07/17 12:17:52;;;;;;;3.05;0.90;;;22.50;88.70;;;;;;5031965;28;20048;-83
2023/07/17 12:20:20;;;;;;;5.00;1.20;;;22.80;90.30;;;;;;5031479;28;20041;-82
2023/07/17 12:22:49;;;;;;;4.13;1.17;;;22.60;91.50;;;;;;5031138;28;20206;-82
2023/07/17 12:25:15;;;;;;;3.33;1.20;;;22.40;92.50;;;;;;5047757;28;20048;-80
2023/07/17 12:27:44;;;;;;;5.50;1.40;;;22.40;93.60;;;;;;5047318;28;20135;-82
2023/07/17 12:30:11;;;;;;;3.88;1.30;;;22.60;93.90;;;;;;5049046;28;20718;-82
2023/07/17 12:32:38;;;;;;;3.13;1.13;;;22.80;93.70;;;;;;5048137;28;20052;-83
2023/07/17 12:35:05;;;;;;;2.65;0.90;;;22.80;93.20;;;;;;5034340;28;20132;-83
2023/07/17 12:37:31;;;;;;;3.80;1.00;;;22.90;93.10;;;;;;5050241;28;20045;-84
2023/07/17 12:39:57;;;;;;;4.32;0.95;;;23.10;92.90;;;;;;5050851;28;20066;-83
2023/07/17 12:42:24;;;;;;;5.63;1.50;;;23.10;92.30;;;;;;5049664;28;20048;-82
2023/07/17 12:44:50;;;;;;;3.28;1.25;;;22.90;92.20;;;;;;5052266;28;20036;-83